Time;durP1;ratioP1;P1;durP2;ratioP2;P2;SDS_P1;SDS_P2;PMS_P1;PMS_P2;Temp;Humidity;BMP_temperature;BMP_pressure;BME280_temperature;BME280_humidity;BME280_pressure;Samples;Min_cycle;Max_cycle;Signal;HPM_P1;HPM_P2
2022/07/24 00:01:57;;;;;;;9.37;8.37;;;;;;;28.40;38.87;95186.13;6247210;27;103354;-56
2022/07/24 00:05:01;;;;;;;9.03;8.30;;;;;;;28.48;39.23;95196.00;6256518;27;104612;-56
2022/07/24 00:08:05;;;;;;;10.20;8.83;;;;;;;28.54;38.59;95191.91;6259020;27;104586;-55
2022/07/24 00:11:08;;;;;;;9.50;8.70;;;;;;;28.60;38.71;95189.78;6253989;27;103123;-54
2022/07/24 00:14:11;;;;;;;8.60;7.90;;;;;;;28.67;38.45;95194.56;6249149;27;104250;-56
2022/07/24 00:17:16;;;;;;;8.97;8.27;;;;;;;28.69;38.60;95189.63;6258560;27;103335;-56
2022/07/24 00:20:19;;;;;;;9.47;8.77;;;;;;;28.70;38.23;95191.19;6259748;27;103557;-55
2022/07/24 00:23:24;;;;;;;9.57;8.70;;;;;;;28.59;38.44;95194.38;6243042;27;104806;-55
2022/07/24 00:26:27;;;;;;;10.60;8.80;;;;;;;28.41;38.54;95186.94;6258426;27;104080;-55
2022/07/24 00:29:30;;;;;;;10.30;8.97;;;;;;;28.28;38.91;95186.19;6257979;27;103864;-55
2022/07/24 00:32:35;;;;;;;9.10;8.30;;;;;;;28.19;39.45;95186.31;6256960;27;103222;-55
2022/07/24 00:35:38;;;;;;;9.00;8.10;;;;;;;28.12;38.80;95198.78;6244445;27;103171;-54
2022/07/24 00:38:41;;;;;;;10.27;9.33;;;;;;;28.05;38.89;95185.91;6258142;27;104237;-55
2022/07/24 00:41:44;;;;;;;10.87;8.93;;;;;;;28.03;38.84;95180.84;6257260;27;104052;-56
2022/07/24 00:44:48;;;;;;;9.10;8.13;;;;;;;28.00;39.49;95191.53;6251220;27;104034;-55
2022/07/24 00:47:52;;;;;;;8.90;8.13;;;;;;;27.99;39.17;95193.44;6252898;27;103592;-56
2022/07/24 00:50:59;;;;;;;12.00;8.73;;;;;;;28.18;38.89;95190.13;6259230;27;104190;-55
2022/07/24 00:54:04;;;;;;;9.47;8.57;;;;;;;28.29;38.43;95183.16;6252909;27;103919;-56
2022/07/24 00:57:07;;;;;;;9.73;8.80;;;;;;;28.41;38.30;95178.84;6246837;27;104596;-58
2022/07/24 01:00:13;;;;;;;9.60;8.70;;;;;;;28.50;38.29;95187.56;6257955;27;103043;-56
2022/07/24 01:03:18;;;;;;;10.77;9.10;;;;;;;28.53;38.36;95190.34;6253472;27;103188;-58
2022/07/24 01:06:22;;;;;;;9.13;8.30;;;;;;;28.59;38.10;95191.69;6258565;27;104217;-56
2022/07/24 01:09:26;;;;;;;9.60;8.80;;;;;;;28.63;38.41;95195.25;6247532;27;103175;-57
2022/07/24 01:12:31;;;;;;;9.77;8.87;;;;;;;28.63;38.18;95187.19;6256624;27;103189;-55
2022/07/24 01:15:34;;;;;;;8.23;7.53;;;;;;;28.54;38.72;95183.84;6236969;27;104078;-56
2022/07/24 01:18:39;;;;;;;10.37;8.17;;;;;;;28.42;38.52;95183.09;6257865;27;103014;-56
2022/07/24 01:21:48;;;;;;;9.07;8.17;;;;;;;28.31;38.85;95194.34;6247459;27;103281;-55
2022/07/24 01:24:51;;;;;;;8.90;8.20;;;;;;;28.20;38.94;95189.78;6254047;27;103215;-55
2022/07/24 01:27:54;;;;;;;8.83;8.03;;;;;;;28.12;39.10;95196.88;6256823;27;103343;-55
2022/07/24 01:30:57;;;;;;;9.40;8.60;;;;;;;28.05;39.80;95193.97;6247797;27;105735;-55
2022/07/24 01:34:00;;;;;;;8.57;7.87;;;;;;;27.99;39.97;95184.56;6252759;27;103966;-55
2022/07/24 01:37:05;;;;;;;9.93;9.03;;;;;;;27.94;39.91;95182.91;6257542;27;103366;-57
2022/07/24 01:40:09;;;;;;;9.23;8.43;;;;;;;27.96;40.10;95187.94;6257730;27;104281;-56
2022/07/24 01:43:12;;;;;;;9.00;8.10;;;;;;;28.13;39.04;95174.22;6244019;27;103110;-58
2022/07/24 01:46:15;;;;;;;9.37;8.47;;;;;;;28.27;38.99;95176.53;6256626;27;104163;-55
2022/07/24 01:49:19;;;;;;;10.77;8.93;;;;;;;28.34;38.92;95182.09;6257661;27;103478;-57
2022/07/24 01:52:25;;;;;;;8.90;8.10;;;;;;;28.40;39.18;95171.91;6255602;27;103124;-55
2022/07/24 01:55:28;;;;;;;8.87;8.17;;;;;;;28.49;38.75;95169.84;6244485;27;105070;-56
2022/07/24 01:58:31;;;;;;;9.20;8.23;;;;;;;28.51;39.12;95170.28;6256340;27;103289;-55
2022/07/24 02:01:35;;;;;;;9.20;8.50;;;;;;;28.52;38.85;95163.78;6256335;27;104228;-55
2022/07/24 02:04:38;;;;;;;8.83;8.03;;;;;;;28.54;38.90;95159.59;6248132;27;104083;-55
2022/07/24 02:07:44;;;;;;;8.87;8.07;;;;;;;28.42;38.57;95159.66;6251918;27;104281;-55
2022/07/24 02:10:47;;;;;;;10.30;8.00;;;;;;;28.33;38.74;95161.69;6256999;27;103071;-56
2022/07/24 02:13:52;;;;;;;10.00;9.00;;;;;;;28.20;39.35;95162.88;6251730;27;103580;-58
2022/07/24 02:16:55;;;;;;;9.40;8.30;;;;;;;28.10;39.86;95168.75;6246205;27;103784;-55
2022/07/24 02:19:58;;;;;;;7.80;7.20;;;;;;;28.03;39.47;95159.34;6256440;27;103050;-59
2022/07/24 02:23:03;;;;;;;9.30;8.50;;;;;;;27.98;40.20;95167.66;6253034;27;103039;-54
2022/07/24 02:26:07;;;;;;;9.60;8.70;;;;;;;27.92;40.24;95163.66;6254253;27;103368;-55
2022/07/24 02:29:10;;;;;;;8.43;7.67;;;;;;;27.85;40.19;95163.38;6244384;27;104140;-55
2022/07/24 02:32:13;;;;;;;8.50;7.90;;;;;;;27.97;40.06;95155.31;6254971;27;103309;-54
2022/07/24 02:35:16;;;;;;;9.30;8.57;;;;;;;28.11;39.76;95148.78;6253006;27;103260;-55
2022/07/24 02:38:21;;;;;;;9.60;8.70;;;;;;;28.23;39.70;95156.81;6251592;27;105469;-57
2022/07/24 02:41:24;;;;;;;8.57;7.77;;;;;;;28.31;39.51;95156.66;6249954;27;103981;-54
2022/07/24 02:44:27;;;;;;;9.90;8.93;;;;;;;28.39;39.15;95164.91;6252713;27;104360;-56
2022/07/24 02:47:30;;;;;;;9.73;7.90;;;;;;;28.43;38.55;95169.28;6257128;27;102884;-56
2022/07/24 02:50:36;;;;;;;9.57;8.60;;;;;;;28.45;38.52;95164.34;6220687;27;103083;-55
2022/07/24 02:53:41;;;;;;;9.17;8.27;;;;;;;28.50;38.69;95155.25;6246343;27;104033;-55
2022/07/24 02:56:44;;;;;;;8.70;7.90;;;;;;;28.39;38.59;95160.31;6258672;27;104208;-54
2022/07/24 02:59:51;;;;;;;9.93;7.83;;;;;;;28.27;38.66;95158.47;6259502;27;103065;-55
2022/07/24 03:02:55;;;;;;;8.27;7.67;;;;;;;28.14;38.87;95159.66;6246247;27;103115;-55
2022/07/24 03:05:58;;;;;;;8.93;8.23;;;;;;;28.09;39.57;95161.81;6258096;27;102969;-54
2022/07/24 03:09:03;;;;;;;8.93;8.13;;;;;;;28.00;39.43;95161.94;6260678;27;103624;-56
2022/07/24 03:12:07;;;;;;;8.73;7.93;;;;;;;27.92;39.68;95170.94;6259087;27;103543;-55
2022/07/24 03:15:11;;;;;;;8.70;7.90;;;;;;;27.85;39.13;95165.28;6245783;27;104114;-55
2022/07/24 03:18:14;;;;;;;8.67;7.87;;;;;;;27.81;39.44;95161.72;6260448;27;103191;-55
2022/07/24 03:21:25;;;;;;;9.17;8.27;;;;;;;27.85;39.48;95160.69;6235602;27;104111;-54
2022/07/24 03:24:49;;;;;;;9.00;8.10;;;;;;;27.97;39.05;95165.31;6246273;27;104947;-55
2022/07/24 03:27:53;;;;;;;9.20;8.40;;;;;;;28.04;38.90;95165.50;6260874;27;104201;-57
2022/07/24 03:30:56;;;;;;;9.10;8.20;;;;;;;28.20;38.70;95177.09;6258697;27;103083;-56
2022/07/24 03:33:59;;;;;;;9.03;7.70;;;;;;;28.31;37.80;95177.41;6254454;27;103978;-56
2022/07/24 03:37:02;;;;;;;9.33;7.57;;;;;;;28.37;37.68;95178.72;6249307;27;103338;-57
2022/07/24 03:40:08;;;;;;;10.37;8.90;;;;;;;28.43;37.83;95176.59;6259644;27;103465;-56
2022/07/24 03:43:11;;;;;;;8.90;8.10;;;;;;;28.47;37.31;95182.88;6256770;27;103608;-57
2022/07/24 03:46:14;;;;;;;9.10;8.20;;;;;;;28.46;37.88;95175.94;6257777;27;104720;-57
2022/07/24 03:49:18;;;;;;;9.73;8.73;;;;;;;28.50;37.90;95182.97;6250756;27;103036;-56
2022/07/24 03:52:22;;;;;;;8.10;7.47;;;;;;;28.50;37.24;95179.50;6258226;27;103226;-56
2022/07/24 03:55:27;;;;;;;9.20;8.20;;;;;;;28.49;37.72;95183.31;6256018;27;104136;-55
2022/07/24 03:58:30;;;;;;;10.00;8.63;;;;;;;28.41;37.05;95176.94;6249282;27;103178;-59
2022/07/24 04:01:40;;;;;;;9.83;8.83;;;;;;;28.25;37.54;95181.50;6257241;27;104037;-54
2022/07/24 04:04:43;;;;;;;11.37;8.10;;;;;;;28.14;37.74;95170.41;6256011;27;104395;-55
2022/07/24 04:07:47;;;;;;;9.80;8.73;;;;;;;27.97;37.12;95171.47;6259285;27;104528;-55
2022/07/24 04:10:56;;;;;;;9.10;8.20;;;;;;;27.90;37.30;95171.28;6249504;27;104325;-56
2022/07/24 04:14:00;;;;;;;11.33;8.47;;;;;;;27.79;36.95;95170.13;6253293;27;103470;-54
2022/07/24 04:17:03;;;;;;;11.40;9.13;;;;;;;27.78;37.62;95173.94;6259972;27;103986;-57
2022/07/24 04:20:08;;;;;;;11.57;8.30;;;;;;;27.75;37.32;95174.63;6259004;27;104469;-55
2022/07/24 04:23:11;;;;;;;14.93;9.93;;;;;;;27.80;37.21;95179.00;6245368;27;103993;-57
2022/07/24 04:26:16;;;;;;;12.13;9.30;;;;;;;27.92;36.97;95179.00;6256838;27;105432;-54
2022/07/24 04:29:19;;;;;;;9.57;8.57;;;;;;;28.08;36.67;95173.69;6258387;27;103048;-55
2022/07/24 04:32:25;;;;;;;10.93;8.50;;;;;;;28.20;36.96;95174.41;6249468;27;104114;-57
2022/07/24 04:35:28;;;;;;;10.43;9.23;;;;;;;28.22;36.89;95171.38;6252815;27;103247;-54
2022/07/24 04:38:33;;;;;;;12.70;9.40;;;;;;;28.22;36.31;95174.06;6258714;27;103377;-55
2022/07/24 04:41:37;;;;;;;12.10;9.93;;;;;;;28.25;36.87;95170.72;6257463;27;103108;-55
2022/07/24 04:44:40;;;;;;;11.70;10.00;;;;;;;28.24;36.02;95171.84;6243673;27;104183;-54
2022/07/24 04:47:43;;;;;;;11.03;10.07;;;;;;;28.29;36.50;95176.97;6258608;27;104584;-54
2022/07/24 04:50:46;;;;;;;11.40;9.53;;;;;;;28.26;36.38;95178.44;6258572;27;104030;-56
2022/07/24 04:53:52;;;;;;;10.63;9.63;;;;;;;28.16;36.76;95173.53;6252496;27;103299;-55
2022/07/24 04:56:57;;;;;;;11.40;10.20;;;;;;;28.03;36.46;95180.84;6247201;27;104465;-55
2022/07/24 05:00:00;;;;;;;10.73;9.03;;;;;;;27.87;36.70;95181.91;6258172;27;104144;-53
2022/07/24 05:03:03;;;;;;;12.20;11.07;;;;;;;27.77;37.01;95189.31;6242846;27;103539;-55
2022/07/24 05:06:07;;;;;;;12.47;11.27;;;;;;;27.71;37.44;95192.53;6250847;27;103587;-55
2022/07/24 05:09:10;;;;;;;12.20;11.20;;;;;;;27.68;37.93;95195.91;6252590;27;103268;-55
2022/07/24 05:12:14;;;;;;;12.27;10.60;;;;;;;27.71;38.05;95193.31;6256392;27;104123;-55
2022/07/24 05:15:17;;;;;;;12.33;11.10;;;;;;;27.69;38.47;95202.84;6254413;27;103122;-54
2022/07/24 05:18:21;;;;;;;11.47;10.40;;;;;;;27.79;37.76;95202.41;6247225;27;103956;-55
2022/07/24 05:21:24;;;;;;;12.23;10.90;;;;;;;27.97;38.30;95203.75;6231993;27;104305;-55
2022/07/24 05:24:30;;;;;;;12.60;11.50;;;;;;;28.10;37.44;95201.81;6254677;27;104149;-56
2022/07/24 05:27:35;;;;;;;11.90;10.70;;;;;;;28.20;37.54;95200.53;6257564;27;104292;-54
2022/07/24 05:30:38;;;;;;;11.83;10.83;;;;;;;28.27;37.80;95206.94;6246711;27;103208;-56
2022/07/24 05:33:41;;;;;;;11.93;10.90;;;;;;;28.30;38.02;95203.56;6251513;27;103337;-54
2022/07/24 05:36:44;;;;;;;12.23;11.07;;;;;;;28.36;37.38;95199.47;6257488;27;104512;-54
2022/07/24 05:39:47;;;;;;;12.40;10.83;;;;;;;28.42;37.95;95202.72;6256961;27;103345;-54
2022/07/24 05:42:52;;;;;;;13.50;10.53;;;;;;;28.44;37.87;95203.16;6245373;27;103549;-57
2022/07/24 05:45:55;;;;;;;12.97;11.70;;;;;;;28.35;38.04;95199.81;6255089;27;103346;-55
2022/07/24 05:48:58;;;;;;;11.37;10.30;;;;;;;28.22;38.40;95203.69;6256714;27;103108;-56
2022/07/24 05:52:02;;;;;;;11.23;10.23;;;;;;;28.11;38.68;95192.63;6245080;27;103408;-55
2022/07/24 05:55:11;;;;;;;12.30;11.23;;;;;;;28.06;38.69;95192.88;6253501;27;103047;-57
2022/07/24 05:58:20;;;;;;;11.23;10.20;;;;;;;27.97;38.72;95184.13;6256794;27;103148;-56
2022/07/24 06:01:24;;;;;;;11.90;10.73;;;;;;;27.93;39.23;95194.03;6255789;27;104044;-57
2022/07/24 06:04:27;;;;;;;13.10;11.00;;;;;;;27.90;38.97;95186.63;6242066;27;103646;-56
2022/07/24 06:07:30;;;;;;;11.57;10.57;;;;;;;27.92;38.64;95182.47;6257391;27;102962;-54
2022/07/24 06:10:33;;;;;;;12.20;11.00;;;;;;;28.01;38.50;95176.94;6256811;27;103333;-55
2022/07/24 06:13:38;;;;;;;12.17;11.10;;;;;;;28.16;38.26;95175.44;6250808;27;103162;-54
2022/07/24 06:16:41;;;;;;;10.80;9.80;;;;;;;28.28;38.57;95186.97;6246311;27;103210;-54
2022/07/24 06:19:45;;;;;;;15.63;10.80;;;;;;;28.38;38.22;95184.91;6256106;27;103075;-54
2022/07/24 06:22:48;;;;;;;10.80;9.90;;;;;;;28.47;37.79;95183.66;6254560;27;102744;-56
2022/07/24 06:25:51;;;;;;;11.53;10.27;;;;;;;28.54;37.61;95181.16;6248653;27;103676;-55
2022/07/24 06:28:55;;;;;;;10.60;9.60;;;;;;;28.61;37.38;95175.97;6252425;27;103274;-54
2022/07/24 06:31:59;;;;;;;10.90;9.90;;;;;;;28.68;37.05;95166.50;6258881;27;104512;-53
2022/07/24 06:35:02;;;;;;;11.53;10.40;;;;;;;28.70;37.36;95169.63;6256181;27;104365;-55
2022/07/24 06:38:05;;;;;;;11.23;10.10;;;;;;;28.57;37.33;95164.31;6251392;27;103894;-55
2022/07/24 06:41:08;;;;;;;11.77;10.10;;;;;;;28.48;37.31;95169.06;6260263;27;102964;-54
2022/07/24 06:44:12;;;;;;;10.20;9.30;;;;;;;28.39;37.60;95164.91;6255041;27;103118;-53
2022/07/24 06:47:16;;;;;;;10.97;9.77;;;;;;;28.32;37.52;95160.13;6261588;27;104056;-54
2022/07/24 06:50:19;;;;;;;11.70;10.60;;;;;;;28.27;37.85;95157.69;6249620;27;105143;-55
2022/07/24 06:53:22;;;;;;;10.50;9.40;;;;;;;28.26;37.75;95150.75;6255544;27;102921;-55
2022/07/24 06:56:25;;;;;;;11.40;10.17;;;;;;;28.20;37.45;95154.78;6260898;27;103281;-53
2022/07/24 06:59:30;;;;;;;11.30;10.13;;;;;;;28.20;38.11;95157.50;6256583;27;103249;-54
2022/07/24 07:02:33;;;;;;;10.90;9.90;;;;;;;28.20;37.78;95147.50;6252928;27;103241;-54
2022/07/24 07:05:36;;;;;;;13.30;10.40;;;;;;;28.38;37.11;95150.69;6255487;27;104554;-57
2022/07/24 07:08:39;;;;;;;11.23;10.23;;;;;;;28.51;37.85;95152.22;6260567;27;103415;-54
2022/07/24 07:11:42;;;;;;;10.47;9.50;;;;;;;28.68;37.34;95144.94;6248227;27;104031;-56
2022/07/24 07:14:57;;;;;;;11.43;10.27;;;;;;;28.80;37.05;95150.28;6256230;27;104230;-56
2022/07/24 07:18:00;;;;;;;10.47;9.47;;;;;;;28.90;37.36;95147.09;6260212;27;103340;-56
2022/07/24 07:21:04;;;;;;;10.90;9.80;;;;;;;28.95;37.44;95152.19;6259732;27;104048;-55
2022/07/24 07:24:08;;;;;;;10.93;9.90;;;;;;;29.01;36.69;95150.78;6243377;27;103896;-55
2022/07/24 07:27:11;;;;;;;11.47;10.63;;;;;;;29.05;36.84;95149.00;6260309;27;103101;-56
2022/07/24 07:30:16;;;;;;;11.50;10.50;;;;;;;29.00;37.47;95143.84;6259539;27;102972;-55
2022/07/24 07:33:19;;;;;;;11.57;10.37;;;;;;;28.89;37.14;95142.78;6254356;27;102781;-59
2022/07/24 07:36:22;;;;;;;10.63;9.80;;;;;;;28.79;37.84;95143.31;6248957;27;104248;-55
2022/07/24 07:39:25;;;;;;;12.07;11.00;;;;;;;28.70;37.33;95145.38;6260120;27;103678;-56
2022/07/24 07:42:28;;;;;;;11.10;10.20;;;;;;;28.67;38.05;95143.38;6256847;27;104062;-55
2022/07/24 07:45:32;;;;;;;13.03;11.73;;;;;;;28.59;37.94;95145.91;6246117;27;104650;-61
2022/07/24 07:48:36;;;;;;;12.03;10.80;;;;;;;28.48;37.46;95141.38;6259509;27;104358;-55
2022/07/24 07:51:39;;;;;;;12.53;10.30;;;;;;;28.46;38.02;95138.25;6257435;27;103995;-57
2022/07/24 07:54:45;;;;;;;13.00;11.70;;;;;;;28.47;38.16;95139.81;6254639;27;103221;-56
2022/07/24 07:57:49;;;;;;;12.13;11.10;;;;;;;28.62;37.67;95137.13;6249554;27;103188;-55
2022/07/24 08:01:09;;;;;;;11.70;10.53;;;;;;;28.74;37.06;95136.28;6259499;27;103041;-54
2022/07/24 08:04:13;;;;;;;11.90;10.67;;;;;;;28.85;36.68;95134.63;6252784;27;103650;-55
2022/07/24 08:07:16;;;;;;;12.60;11.53;;;;;;;28.95;36.92;95144.13;6258975;27;104142;-56
2022/07/24 08:10:19;;;;;;;12.00;10.70;;;;;;;29.03;36.76;95140.44;6248869;27;103984;-54
2022/07/24 08:13:23;;;;;;;11.63;10.50;;;;;;;29.09;36.87;95144.50;6254126;27;104461;-57
2022/07/24 08:16:28;;;;;;;11.37;10.17;;;;;;;29.17;36.83;95135.44;6257247;27;104076;-55
2022/07/24 08:19:31;;;;;;;11.70;10.60;;;;;;;29.20;36.49;95139.34;6250049;27;104872;-57
2022/07/24 08:22:34;;;;;;;12.47;11.13;;;;;;;29.17;36.30;95143.53;6256327;27;104313;-55
2022/07/24 08:25:37;;;;;;;11.37;10.37;;;;;;;29.04;35.97;95142.03;6254515;27;104046;-55
2022/07/24 08:28:41;;;;;;;13.80;10.30;;;;;;;28.91;36.03;95146.72;6258931;27;103280;-54
2022/07/24 08:31:45;;;;;;;11.20;10.13;;;;;;;28.81;36.75;95132.97;6245784;27;103499;-55
2022/07/24 08:34:48;;;;;;;11.60;10.37;;;;;;;28.74;36.22;95135.50;6254431;27;105086;-55
2022/07/24 08:37:51;;;;;;;11.90;10.70;;;;;;;28.67;36.11;95138.78;6258033;27;103037;-55
2022/07/24 08:40:55;;;;;;;11.40;10.33;;;;;;;28.62;36.33;95131.75;6258369;27;102917;-55
2022/07/24 08:43:58;;;;;;;13.87;11.00;;;;;;;28.57;36.16;95133.94;6242165;27;104177;-54
2022/07/24 08:47:03;;;;;;;11.17;10.07;;;;;;;28.54;36.30;95127.28;6258367;27;102837;-54
2022/07/24 08:50:08;;;;;;;11.17;10.27;;;;;;;28.65;36.34;95125.66;6258539;27;104379;-54
2022/07/24 08:53:11;;;;;;;12.83;10.70;;;;;;;28.80;36.46;95123.34;6250851;27;104459;-55
2022/07/24 08:56:14;;;;;;;12.10;11.00;;;;;;;28.90;35.99;95134.38;6249642;27;104046;-58
2022/07/24 08:59:19;;;;;;;11.67;10.67;;;;;;;28.98;35.99;95129.94;6258684;27;104376;-54
2022/07/24 09:02:29;;;;;;;11.93;10.60;;;;;;;29.03;36.68;95126.19;6256276;27;103221;-54
2022/07/24 09:05:35;;;;;;;12.73;10.97;;;;;;;29.12;35.85;95133.00;6242661;27;104236;-56
2022/07/24 09:08:40;;;;;;;11.43;10.43;;;;;;;29.17;36.34;95130.03;6257127;27;103364;-55
2022/07/24 09:11:43;;;;;;;12.20;10.73;;;;;;;29.22;36.04;95127.06;6256511;27;104249;-55
2022/07/24 09:14:48;;;;;;;12.13;10.80;;;;;;;29.20;35.85;95118.56;6253128;27;104130;-55
2022/07/24 09:17:54;;;;;;;13.03;11.00;;;;;;;29.10;36.07;95121.81;6247890;27;103433;-58
2022/07/24 09:20:58;;;;;;;11.70;10.70;;;;;;;28.91;36.65;95114.41;6257860;27;103208;-56
2022/07/24 09:24:11;;;;;;;11.60;10.50;;;;;;;28.89;36.76;95111.25;6252124;27;103130;-55
2022/07/24 09:27:15;;;;;;;10.87;9.77;;;;;;;28.87;36.93;95120.81;6252393;27;103086;-56
2022/07/24 09:30:25;;;;;;;11.87;10.20;;;;;;;28.81;36.58;95103.34;6253458;27;104102;-54
2022/07/24 09:33:36;;;;;;;11.97;10.80;;;;;;;28.70;37.11;95115.75;6252488;27;102695;-56
2022/07/24 09:36:40;;;;;;;12.10;10.73;;;;;;;28.65;37.10;95108.72;6256432;27;103580;-55
2022/07/24 09:39:44;;;;;;;10.40;9.40;;;;;;;28.53;37.33;95114.97;6246412;27;103117;-54
2022/07/24 09:42:47;;;;;;;11.73;10.53;;;;;;;28.58;37.24;95113.94;6256266;27;104236;-56
2022/07/24 09:45:54;;;;;;;11.40;10.30;;;;;;;28.59;37.67;95110.91;6253951;27;105829;-58
2022/07/24 09:49:00;;;;;;;10.60;9.73;;;;;;;28.60;37.55;95103.59;6257903;27;104025;-54
2022/07/24 09:52:15;;;;;;;11.63;10.30;;;;;;;28.70;37.01;95103.06;6243945;27;103522;-54
2022/07/24 09:55:24;;;;;;;11.33;10.23;;;;;;;28.90;36.62;95098.59;6253016;27;103930;-53
2022/07/24 09:58:27;;;;;;;12.70;11.47;;;;;;;29.03;37.07;95091.94;6257371;27;103526;-54
2022/07/24 10:01:31;;;;;;;12.60;11.60;;;;;;;29.17;36.67;95088.84;6250372;27;104261;-57
2022/07/24 10:04:39;;;;;;;12.77;11.57;;;;;;;29.29;36.90;95093.34;6247299;27;103994;-53
2022/07/24 10:07:45;;;;;;;12.80;11.60;;;;;;;29.39;36.63;95082.00;6261254;27;103276;-54
2022/07/24 10:10:49;;;;;;;13.03;11.90;;;;;;;29.44;36.17;95090.63;6261148;27;103347;-56
2022/07/24 10:13:59;;;;;;;13.20;11.90;;;;;;;29.48;36.09;95085.28;6245503;27;104685;-55
2022/07/24 10:17:07;;;;;;;12.63;11.17;;;;;;;29.53;36.38;95085.00;6260781;27;103228;-54
2022/07/24 10:20:38;;;;;;;13.00;11.80;;;;;;;29.52;36.26;95080.75;6253671;27;104150;-53
2022/07/24 10:24:13;;;;;;;12.83;11.67;;;;;;;29.54;36.62;95073.09;6250902;27;103868;-55
2022/07/24 10:27:25;;;;;;;12.33;11.43;;;;;;;29.55;36.45;95080.81;6255950;27;103146;-55
2022/07/24 10:30:29;;;;;;;12.93;11.40;;;;;;;29.56;36.42;95073.50;6260624;27;104120;-60
2022/07/24 10:33:32;;;;;;;13.77;11.70;;;;;;;29.56;35.84;95073.50;6255717;27;103830;-56
2022/07/24 10:36:43;;;;;;;11.90;10.57;;;;;;;29.57;36.44;95068.91;6250028;27;103211;-55
2022/07/24 10:40:08;;;;;;;12.10;11.20;;;;;;;29.57;36.59;95066.19;6260522;27;103121;-56
2022/07/24 10:43:14;;;;;;;11.80;10.70;;;;;;;29.55;35.99;95058.47;6257398;27;103048;-56
2022/07/24 10:46:18;;;;;;;11.90;10.80;;;;;;;29.46;36.31;95061.38;6258827;27;103501;-55
2022/07/24 10:49:40;;;;;;;12.30;11.10;;;;;;;29.29;36.44;95050.22;6251940;27;104306;-54
2022/07/24 10:52:46;;;;;;;12.50;11.30;;;;;;;29.15;37.15;95048.75;6259022;27;104185;-55
2022/07/24 10:55:51;;;;;;;11.37;10.20;;;;;;;29.04;37.36;95050.41;6257888;27;104231;-58
2022/07/24 10:59:00;;;;;;;11.90;10.90;;;;;;;28.94;37.05;95043.66;6249787;27;103726;-56
2022/07/24 11:02:29;;;;;;;10.70;9.70;;;;;;;28.86;37.14;95038.41;6258675;27;104032;-54
2022/07/24 11:05:35;;;;;;;12.43;11.37;;;;;;;28.81;37.76;95031.41;6256632;27;104732;-56
2022/07/24 11:08:41;;;;;;;12.27;11.27;;;;;;;28.87;37.25;95023.81;6260247;27;103259;-55
2022/07/24 11:12:06;;;;;;;10.97;10.17;;;;;;;28.99;37.61;95021.03;6249114;27;104444;-55
2022/07/24 11:19:27;;;;;;;11.73;10.80;;;;;;;29.26;36.77;95013.19;6179965;28;103646;-56
2022/07/24 11:22:40;;;;;;;12.30;11.20;;;;;;;29.34;36.61;95014.88;6179966;27;105320;-56
2022/07/24 11:25:44;;;;;;;11.77;10.80;;;;;;;29.40;36.78;95008.06;6255729;27;103290;-53
2022/07/24 11:29:12;;;;;;;11.43;10.33;;;;;;;29.45;36.86;95013.97;6259323;27;103274;-53
2022/07/24 11:32:17;;;;;;;11.93;10.87;;;;;;;29.50;36.80;95016.38;6254233;27;103747;-55
2022/07/24 11:35:28;;;;;;;11.93;10.93;;;;;;;29.52;35.95;95010.63;6250910;27;104130;-56
2022/07/24 11:38:32;;;;;;;11.27;10.47;;;;;;;29.52;36.09;95011.41;6259662;27;103185;-56
2022/07/24 11:41:46;;;;;;;11.70;10.67;;;;;;;29.41;36.45;95009.66;6257821;27;103553;-56
2022/07/24 11:44:51;;;;;;;11.03;10.13;;;;;;;29.21;36.31;94996.13;6245099;27;103029;-56
2022/07/24 11:47:55;;;;;;;11.57;10.57;;;;;;;29.04;37.22;95001.91;6258871;27;103174;-55
2022/07/24 11:51:05;;;;;;;12.27;10.47;;;;;;;28.97;37.08;94998.25;6259293;27;103252;-56
2022/07/24 11:54:29;;;;;;;10.40;9.60;;;;;;;28.90;37.45;94994.28;6243829;27;104264;-57
2022/07/24 11:57:36;;;;;;;10.70;9.70;;;;;;;28.78;38.32;94994.38;6251717;27;104245;-56
2022/07/24 12:00:59;;;;;;;11.10;10.07;;;;;;;28.77;37.66;94997.44;6258988;27;103459;-56
2022/07/24 12:04:02;;;;;;;11.60;10.43;;;;;;;28.78;37.82;94991.69;6253184;27;103260;-55
2022/07/24 12:07:07;;;;;;;10.80;9.90;;;;;;;28.89;37.67;94983.84;6248799;27;103334;-54
2022/07/24 12:10:10;;;;;;;11.50;10.70;;;;;;;29.00;37.14;94989.47;6259216;27;103177;-54
2022/07/24 12:13:16;;;;;;;10.60;9.70;;;;;;;29.13;37.11;94990.94;6256743;27;103452;-54
2022/07/24 12:16:25;;;;;;;11.27;10.40;;;;;;;29.23;36.62;94985.81;6257718;27;104064;-56
2022/07/24 12:19:29;;;;;;;10.33;9.63;;;;;;;29.31;36.67;94992.09;6247269;27;103035;-55
2022/07/24 12:22:33;;;;;;;10.70;9.90;;;;;;;29.37;36.74;94993.38;6256360;27;104316;-54
2022/07/24 12:25:37;;;;;;;10.10;9.40;;;;;;;29.40;36.26;94990.00;6255557;27;103032;-56
2022/07/24 12:28:41;;;;;;;11.00;10.00;;;;;;;29.43;36.45;94988.50;6254746;27;104235;-60
2022/07/24 12:31:45;;;;;;;10.80;9.90;;;;;;;29.46;36.35;94982.41;6250812;27;103458;-54
2022/07/24 12:34:49;;;;;;;10.10;9.30;;;;;;;29.48;36.02;94977.44;6254481;27;103378;-53
2022/07/24 12:38:12;;;;;;;10.43;9.70;;;;;;;29.40;36.38;94981.09;6258200;27;102892;-54
2022/07/24 12:41:17;;;;;;;11.07;10.27;;;;;;;29.26;36.69;94972.75;6246964;27;103506;-57
2022/07/24 12:44:22;;;;;;;10.80;10.00;;;;;;;29.06;36.55;94972.69;6253394;27;104271;-56
2022/07/24 12:47:25;;;;;;;11.10;10.10;;;;;;;28.96;37.20;94965.16;6259042;27;104113;-55
2022/07/24 12:50:28;;;;;;;11.37;10.30;;;;;;;28.92;37.27;94969.69;6257524;27;104271;-54
2022/07/24 12:53:55;;;;;;;11.00;10.07;;;;;;;28.89;37.41;94952.28;6243178;27;105543;-55
2022/07/24 12:56:59;;;;;;;10.67;9.77;;;;;;;28.96;37.27;94951.69;6259303;27;103305;-54
2022/07/24 13:00:05;;;;;;;10.50;9.50;;;;;;;29.00;37.63;94943.66;6281693;27;103134;-54
2022/07/24 13:03:08;;;;;;;14.67;9.97;;;;;;;29.13;37.34;94939.75;6249070;27;103607;-55
2022/07/24 13:06:11;;;;;;;11.00;9.67;;;;;;;29.28;37.37;94938.91;6249293;27;103506;-56
2022/07/24 13:09:16;;;;;;;12.33;10.40;;;;;;;29.40;37.15;94940.66;6262774;27;103313;-55
2022/07/24 13:12:20;;;;;;;11.17;10.07;;;;;;;29.49;37.13;94930.44;6261230;27;103014;-54
2022/07/24 13:15:25;;;;;;;11.30;10.30;;;;;;;29.47;37.52;94927.31;6242877;27;104358;-53
2022/07/24 13:18:29;;;;;;;18.33;11.40;;;;;;;29.65;37.81;94920.38;6256676;27;103054;-53
2022/07/24 13:21:33;;;;;;;17.00;11.00;;;;;;;29.68;37.87;94919.66;6256361;27;103472;-55
2022/07/24 13:24:37;;;;;;;15.20;9.87;;;;;;;29.68;38.61;94921.56;6249028;27;103054;-54
2022/07/24 13:27:40;;;;;;;17.47;11.37;;;;;;;29.81;38.06;94921.06;6252894;27;103223;-56
2022/07/24 13:31:05;;;;;;;11.67;10.50;;;;;;;29.79;38.30;94919.88;6250823;27;103733;-54
2022/07/24 13:34:09;;;;;;;11.63;9.80;;;;;;;29.91;37.90;94921.63;6250588;27;104029;-54
2022/07/24 13:37:19;;;;;;;11.90;10.60;;;;;;;29.92;37.29;94915.84;6259648;27;103235;-53
2022/07/24 13:40:23;;;;;;;11.40;10.40;;;;;;;29.90;37.50;94911.94;6268032;27;104151;-55
2022/07/24 13:43:26;;;;;;;11.57;10.57;;;;;;;29.76;37.61;94909.78;6251909;27;104247;-54
2022/07/24 13:46:32;;;;;;;11.60;10.50;;;;;;;29.65;37.50;94911.50;6260710;27;103205;-54
2022/07/24 13:49:35;;;;;;;12.17;11.07;;;;;;;29.62;37.45;94914.94;6259157;27;103729;-56
2022/07/24 13:52:38;;;;;;;11.40;10.40;;;;;;;29.49;37.47;94908.88;6253807;27;103972;-53
2022/07/24 13:55:41;;;;;;;11.80;10.90;;;;;;;29.46;37.69;94909.59;6251284;27;104353;-53
2022/07/24 13:58:44;;;;;;;11.53;10.63;;;;;;;29.47;37.28;94911.16;6246835;27;103754;-55
2022/07/24 14:01:49;;;;;;;11.90;10.80;;;;;;;29.39;37.78;94915.59;6242108;27;103693;-54
2022/07/24 14:04:52;;;;;;;12.00;10.80;;;;;;;29.57;37.24;94913.28;6258181;27;104489;-55
2022/07/24 14:07:55;;;;;;;11.40;10.40;;;;;;;29.67;36.80;94912.72;6255817;27;104162;-54
2022/07/24 14:10:58;;;;;;;12.17;11.13;;;;;;;29.79;37.12;94923.34;6261269;27;104257;-55
2022/07/24 14:14:02;;;;;;;12.40;11.30;;;;;;;29.91;37.20;94924.31;6251907;27;103430;-54